createdAt,value
2023-03-07T00:01:00.951Z,99393.09
2023-03-07T00:03:30.780Z,99388.88
2023-03-07T00:06:03.978Z,99392.56
2023-03-07T00:08:33.365Z,99387.28
2023-03-07T00:11:02.867Z,99381.41
2023-03-07T00:13:32.262Z,99387.50
2023-03-07T00:16:08.334Z,99378.66
2023-03-07T00:18:38.304Z,99373.06
2023-03-07T00:21:08.639Z,99373.19
2023-03-07T00:23:38.964Z,99368.53
2023-03-07T00:26:10.157Z,99371.69
2023-03-07T00:28:39.545Z,99359.38
2023-03-07T00:31:12.157Z,99358.56
2023-03-07T00:33:41.848Z,99357.22
2023-03-07T00:36:14.097Z,99358.06
2023-03-07T00:38:43.757Z,99354.38
2023-03-07T00:41:14.252Z,99357.13
2023-03-07T00:43:42.516Z,99351.56
2023-03-07T00:46:12.446Z,99352.41
2023-03-07T00:48:41.611Z,99354.72
2023-03-07T00:51:12.034Z,99347.56
2023-03-07T00:53:40.927Z,99343.16
2023-03-07T00:56:15.070Z,99340.63
2023-03-07T00:58:47.771Z,99345.06
2023-03-07T01:01:19.430Z,99348.22
2023-03-07T01:03:49.547Z,99336.41
2023-03-07T01:06:20.218Z,99332.22
2023-03-07T01:08:49.212Z,99325.59
2023-03-07T01:11:17.745Z,99321.47
2023-03-07T01:13:46.517Z,99316.13
2023-03-07T01:16:19.804Z,99308.97
2023-03-07T01:19:00.003Z,99309.91
2023-03-07T01:21:44.981Z,99308.13
2023-03-07T01:24:15.463Z,99308.75
2023-03-07T01:26:45.757Z,99304.75
2023-03-07T01:29:14.049Z,99303.59
2023-03-07T01:31:43.855Z,99292.13
2023-03-07T01:34:13.371Z,99295.94
2023-03-07T01:36:45.474Z,99295.94
2023-03-07T01:39:17.148Z,99295.28
2023-03-07T01:42:09.425Z,99290.75
2023-03-07T01:45:00.393Z,99287.28
2023-03-07T01:47:36.488Z,99287.59
2023-03-07T01:50:10.443Z,99282.97
2023-03-07T01:52:41.236Z,99284.34
2023-03-07T01:55:18.739Z,99269.50
2023-03-07T01:57:52.196Z,99271.72
2023-03-07T02:00:28.722Z,99275.72
2023-03-07T02:03:07.976Z,99265.59
2023-03-07T02:05:41.904Z,99262.31
2023-03-07T02:08:13.470Z,99259.78
2023-03-07T02:10:42.593Z,99252.88
2023-03-07T02:13:12.307Z,99252.09
2023-03-07T02:15:41.708Z,99257.41
2023-03-07T02:18:17.272Z,99260.53
2023-03-07T02:20:54.087Z,99250.00
2023-03-07T02:23:30.899Z,99250.41
2023-03-07T02:26:05.708Z,99249.78
2023-03-07T02:28:37.603Z,99239.56
2023-03-07T02:31:08.267Z,99243.66
2023-03-07T02:33:38.550Z,99241.22
2023-03-07T02:36:14.169Z,99244.94
2023-03-07T02:38:51.569Z,99244.25
2023-03-07T02:41:26.146Z,99237.31
2023-03-07T02:43:57.949Z,99238.78
2023-03-07T02:46:26.417Z,99238.06
2023-03-07T02:49:03.911Z,99236.03
2023-03-07T02:51:32.958Z,99234.94
2023-03-07T02:54:01.622Z,99236.22
2023-03-07T02:56:31.275Z,99228.75
2023-03-07T02:59:01.597Z,99231.91
2023-03-07T03:01:29.987Z,99228.56
2023-03-07T03:03:58.544Z,99225.41
2023-03-07T03:06:28.155Z,99220.94
2023-03-07T03:08:57.421Z,99225.81
2023-03-07T03:11:26.960Z,99222.94
2023-03-07T03:13:55.467Z,99220.00
2023-03-07T03:16:25.602Z,99220.72
2023-03-07T03:19:09.593Z,99220.94
2023-03-07T03:21:38.608Z,99211.50
2023-03-07T03:24:07.361Z,99213.13
2023-03-07T03:26:37.046Z,99204.06
2023-03-07T03:29:06.466Z,99205.38
2023-03-07T03:31:36.642Z,99203.69
2023-03-07T03:34:06.477Z,99203.41
2023-03-07T03:36:35.405Z,99192.19
2023-03-07T03:39:11.019Z,99193.31
2023-03-07T03:41:45.209Z,99199.88
2023-03-07T03:44:13.973Z,99189.84
2023-03-07T03:46:43.705Z,99191.47
2023-03-07T03:49:16.779Z,99194.72
2023-03-07T03:51:48.481Z,99198.34
2023-03-07T03:54:17.132Z,99198.47
2023-03-07T03:56:45.582Z,99191.53
2023-03-07T03:59:13.861Z,99182.38
2023-03-07T04:01:43.821Z,99178.50
2023-03-07T04:04:12.706Z,99177.44
2023-03-07T04:06:42.574Z,99183.97
2023-03-07T04:09:11.300Z,99183.97
2023-03-07T04:11:43.138Z,99178.31
2023-03-07T04:14:11.397Z,99173.50
2023-03-07T04:16:41.212Z,99171.81
2023-03-07T04:19:13.349Z,99171.41
2023-03-07T04:21:44.123Z,99167.22
2023-03-07T04:24:13.308Z,99168.16
2023-03-07T04:26:41.760Z,99171.84
2023-03-07T04:29:14.741Z,99168.06
2023-03-07T04:31:52.458Z,99164.84
2023-03-07T04:34:22.145Z,99160.56
2023-03-07T04:37:03.530Z,99155.38
2023-03-07T04:39:31.813Z,99160.66
2023-03-07T04:41:59.973Z,99151.31
2023-03-07T04:44:36.343Z,99151.31
2023-03-07T04:47:05.266Z,99154.56
2023-03-07T04:49:38.394Z,99153.19
2023-03-07T04:52:10.536Z,99154.22
2023-03-07T04:54:41.024Z,99149.50
2023-03-07T04:57:15.610Z,99148.88
2023-03-07T04:59:44.605Z,99138.47
2023-03-07T05:02:14.730Z,99152.03
2023-03-07T05:04:47.205Z,99149.81
2023-03-07T05:07:15.924Z,99145.41
2023-03-07T05:09:44.597Z,99144.34
2023-03-07T05:12:13.192Z,99143.00
2023-03-07T05:14:43.062Z,99146.13
2023-03-07T05:17:12.923Z,99139.59
2023-03-07T05:19:45.850Z,99141.59
2023-03-07T05:22:14.340Z,99133.00
2023-03-07T05:24:44.807Z,99128.66
2023-03-07T05:27:13.686Z,99135.75
2023-03-07T05:29:42.176Z,99139.94
2023-03-07T05:32:10.929Z,99142.16
2023-03-07T05:34:40.198Z,99127.19
2023-03-07T05:37:10.511Z,99124.03
2023-03-07T05:39:38.720Z,99123.00
2023-03-07T05:42:07.644Z,99113.66
2023-03-07T05:44:37.577Z,99112.56
2023-03-07T05:47:09.409Z,99121.94
2023-03-07T05:49:37.781Z,99112.22
2023-03-07T05:52:07.893Z,99117.19
2023-03-07T05:54:37.791Z,99111.13
2023-03-07T05:57:07.963Z,99113.44
2023-03-07T05:59:37.415Z,99109.09
2023-03-07T06:02:08.090Z,99111.28
2023-03-07T06:04:37.389Z,99112.16
2023-03-07T06:07:09.133Z,99110.03
2023-03-07T06:09:39.660Z,99104.56
2023-03-07T06:12:10.674Z,99102.16
2023-03-07T06:14:40.068Z,99100.16
2023-03-07T06:17:09.841Z,99100.56
2023-03-07T06:19:38.270Z,99100.34
2023-03-07T06:22:07.612Z,99099.81
2023-03-07T06:24:36.460Z,99094.16
2023-03-07T06:27:08.122Z,99099.09
2023-03-07T06:29:37.794Z,99097.16
2023-03-07T06:32:07.410Z,99110.69
2023-03-07T06:34:38.597Z,99105.84
2023-03-07T06:37:07.484Z,99100.38
2023-03-07T06:39:37.003Z,99112.47
2023-03-07T06:42:09.997Z,99111.91
2023-03-07T06:44:39.415Z,99107.97
2023-03-07T06:47:32.050Z,99116.41
2023-03-07T06:50:02.252Z,99111.19
2023-03-07T06:52:51.881Z,99115.22
2023-03-07T06:55:20.456Z,99113.50
2023-03-07T06:57:50.574Z,99113.19
2023-03-07T07:00:20.081Z,99115.34
2023-03-07T07:02:55.142Z,99105.72
2023-03-07T07:05:41.458Z,99109.56
2023-03-07T07:08:10.318Z,99114.91
2023-03-07T07:10:39.468Z,99115.19
2023-03-07T07:13:12.638Z,99112.13
2023-03-07T07:15:41.502Z,99112.66
2023-03-07T07:18:14.861Z,99119.47
2023-03-07T07:20:44.510Z,99125.19
2023-03-07T07:23:13.257Z,99117.53
2023-03-07T07:25:41.381Z,99118.09
2023-03-07T07:28:11.028Z,99131.78
2023-03-07T07:30:43.479Z,99119.72
2023-03-07T07:33:21.904Z,99120.28
2023-03-07T07:35:55.607Z,99121.53
2023-03-07T07:38:24.296Z,99129.06
2023-03-07T07:40:52.757Z,99124.28
2023-03-07T07:43:22.653Z,99131.84
2023-03-07T07:46:00.614Z,99134.00
2023-03-07T07:48:29.512Z,99117.38
2023-03-07T07:51:01.694Z,99124.91
2023-03-07T07:53:30.860Z,99120.91
2023-03-07T07:55:59.874Z,99122.94
2023-03-07T07:58:29.431Z,99129.53
2023-03-07T08:01:12.687Z,99119.50
2023-03-07T08:03:40.920Z,99118.06
2023-03-07T08:06:09.307Z,99118.94
2023-03-07T08:08:39.195Z,99111.47
2023-03-07T08:11:08.747Z,99111.13
2023-03-07T08:13:38.488Z,99114.44
2023-03-07T08:16:10.310Z,99106.75
2023-03-07T08:18:39.364Z,99095.06
2023-03-07T08:21:08.676Z,99098.72
2023-03-07T08:23:37.202Z,99100.38
2023-03-07T08:26:06.697Z,99091.41
2023-03-07T08:28:34.799Z,99097.22
2023-03-07T08:31:09.907Z,99105.09
2023-03-07T08:33:38.221Z,99100.09
2023-03-07T08:36:07.696Z,99098.78
2023-03-07T08:38:37.147Z,99088.31
2023-03-07T08:41:08.311Z,99090.56
2023-03-07T08:43:40.110Z,99089.47
2023-03-07T08:46:09.691Z,99082.78
2023-03-07T08:48:38.269Z,99091.16
2023-03-07T08:51:08.087Z,99079.06
2023-03-07T08:53:36.308Z,99075.94
2023-03-07T08:56:07.501Z,99083.22
2023-03-07T08:58:36.481Z,99081.50
2023-03-07T09:01:06.850Z,99084.53
2023-03-07T09:03:36.871Z,99092.50
2023-03-07T09:06:06.358Z,99085.31
2023-03-07T09:08:34.892Z,99082.88
2023-03-07T09:11:05.463Z,99075.97
2023-03-07T09:13:43.120Z,99078.25
2023-03-07T09:16:18.513Z,99071.16
2023-03-07T09:19:01.993Z,99079.13
2023-03-07T09:21:31.408Z,99073.16
2023-03-07T09:24:09.233Z,99076.31
2023-03-07T09:26:40.872Z,99070.94
2023-03-07T09:29:09.363Z,99067.81
2023-03-07T09:31:37.631Z,99057.41
2023-03-07T09:34:07.132Z,99062.47
2023-03-07T09:36:36.468Z,99053.66
2023-03-07T09:39:06.510Z,99055.66
2023-03-07T09:41:53.708Z,99049.72
2023-03-07T09:44:33.384Z,99048.94
2023-03-07T09:48:11.169Z,99041.97
2023-03-07T09:51:03.513Z,99039.50
2023-03-07T09:53:56.589Z,99038.03
2023-03-07T09:56:30.482Z,99036.09
2023-03-07T09:59:13.692Z,99040.06
2023-03-07T10:01:52.596Z,99032.00
2023-03-07T10:04:29.074Z,99040.59
2023-03-07T10:07:04.033Z,99031.13
2023-03-07T10:09:32.722Z,99038.31
2023-03-07T10:12:18.229Z,99032.25
2023-03-07T10:15:05.928Z,99029.97
2023-03-07T10:18:05.116Z,99031.19
2023-03-07T10:20:40.266Z,99027.56
2023-03-07T10:23:26.245Z,99022.69
2023-03-07T10:26:02.069Z,99015.00
2023-03-07T10:28:33.675Z,99015.25
2023-03-07T10:31:19.253Z,99007.53
2023-03-07T10:33:49.436Z,99001.88
2023-03-07T10:36:23.932Z,98993.59
2023-03-07T10:39:10.650Z,98996.56
2023-03-07T10:41:54.552Z,98995.84
2023-03-07T10:45:04.416Z,98994.97
2023-03-07T10:48:30.910Z,98986.03
2023-03-07T10:51:40.024Z,98987.38
2023-03-07T10:54:51.463Z,98979.75
2023-03-07T10:57:38.491Z,98977.19
2023-03-07T11:00:23.456Z,98977.72
2023-03-07T11:03:14.558Z,98972.13
2023-03-07T11:06:00.264Z,98977.66
2023-03-07T11:09:15.815Z,98974.28
2023-03-07T11:11:58.587Z,98976.44
2023-03-07T11:14:28.329Z,98975.00
2023-03-07T11:16:57.932Z,98963.63
2023-03-07T11:19:42.254Z,98968.97
2023-03-07T11:22:27.070Z,98968.34
2023-03-07T11:25:14.185Z,98965.56
2023-03-07T11:27:50.938Z,98959.66
2023-03-07T11:30:22.620Z,98963.69
2023-03-07T11:33:00.157Z,98945.84
2023-03-07T11:35:44.250Z,98950.38
2023-03-07T11:38:20.459Z,98946.91
2023-03-07T11:40:57.676Z,98936.44
2023-03-07T11:43:42.466Z,98943.50
2023-03-07T11:46:22.199Z,98938.63
2023-03-07T11:49:08.707Z,98932.91
2023-03-07T11:51:49.925Z,98936.31
2023-03-07T11:54:27.978Z,98938.50
2023-03-07T11:57:03.508Z,98935.31
2023-03-07T12:00:02.014Z,98929.22
2023-03-07T12:02:56.995Z,98932.56
2023-03-07T12:05:38.188Z,98925.56
2023-03-07T12:08:30.225Z,98924.91
2023-03-07T12:11:09.054Z,98921.56
2023-03-07T12:13:45.960Z,98913.00
2023-03-07T12:16:27.047Z,98911.50
2023-03-07T12:19:14.359Z,98906.47
2023-03-07T12:22:08.903Z,98913.00
2023-03-07T12:24:41.480Z,98912.97
2023-03-07T12:27:16.325Z,98908.97
2023-03-07T12:29:52.469Z,98904.44
2023-03-07T12:32:28.519Z,98900.47
2023-03-07T12:35:01.752Z,98901.03
2023-03-07T12:37:39.124Z,98891.28
2023-03-07T12:40:15.221Z,98882.97
2023-03-07T12:42:49.118Z,98889.31
2023-03-07T12:45:37.246Z,98884.16
2023-03-07T12:48:12.543Z,98889.34
2023-03-07T12:50:53.573Z,98880.59
2023-03-07T12:53:36.478Z,98880.09
2023-03-07T12:56:15.292Z,98873.25
2023-03-07T12:58:50.618Z,98879.31
2023-03-07T13:01:39.185Z,98873.63
2023-03-07T13:04:17.357Z,98872.00
2023-03-07T13:06:46.776Z,98867.94
2023-03-07T13:09:21.047Z,98862.94
2023-03-07T13:12:20.340Z,98856.75
2023-03-07T13:14:51.782Z,98858.88
2023-03-07T13:17:56.280Z,98852.88
2023-03-07T13:20:46.055Z,98845.44
2023-03-07T13:23:29.427Z,98854.03
2023-03-07T13:26:07.834Z,98854.66
2023-03-07T13:28:52.484Z,98841.31
2023-03-07T13:31:44.962Z,98849.25
2023-03-07T13:34:52.254Z,98855.63
2023-03-07T13:37:59.178Z,98850.56
2023-03-07T13:40:52.813Z,98851.41
2023-03-07T13:44:01.546Z,98851.69
2023-03-07T13:46:58.729Z,98857.44
2023-03-07T13:49:41.701Z,98845.69
2023-03-07T13:52:39.171Z,98854.28
2023-03-07T13:55:42.379Z,98854.38
2023-03-07T13:58:23.051Z,98850.47
2023-03-07T14:01:01.754Z,98852.91
2023-03-07T14:03:34.170Z,98849.69
2023-03-07T14:06:13.780Z,98859.56
2023-03-07T14:08:42.831Z,98867.19
2023-03-07T14:11:23.044Z,98865.81
2023-03-07T14:14:23.791Z,98863.94
2023-03-07T14:17:07.278Z,98860.72
2023-03-07T14:19:50.010Z,98872.06
2023-03-07T14:22:42.547Z,98874.81
2023-03-07T14:25:18.776Z,98882.13
2023-03-07T14:27:56.025Z,98872.31
2023-03-07T14:30:32.533Z,98876.56
2023-03-07T14:33:03.006Z,98879.88
2023-03-07T14:35:47.578Z,98877.84
2023-03-07T14:38:20.873Z,98876.47
2023-03-07T14:41:36.237Z,98874.28
2023-03-07T14:44:52.361Z,98878.91
2023-03-07T14:47:36.998Z,98880.75
2023-03-07T14:50:11.598Z,98889.28
2023-03-07T14:52:40.930Z,98884.88
2023-03-07T14:55:17.725Z,98881.47
2023-03-07T14:57:49.518Z,98892.50
2023-03-07T15:00:28.458Z,98889.09
2023-03-07T15:03:04.295Z,98903.03
2023-03-07T15:05:35.105Z,98896.47
2023-03-07T15:08:04.134Z,98902.25
2023-03-07T15:10:38.179Z,98900.59
2023-03-07T15:13:09.391Z,98905.47
2023-03-07T15:15:43.552Z,98897.06
2023-03-07T15:19:04.479Z,98892.69
2023-03-07T15:21:39.690Z,98894.72
2023-03-07T15:24:20.009Z,98892.44
2023-03-07T15:26:52.095Z,98905.81
2023-03-07T15:29:23.444Z,98903.78
2023-03-07T15:31:54.323Z,98901.44
2023-03-07T15:34:27.058Z,98904.97
2023-03-07T15:36:55.574Z,98900.31
2023-03-07T15:39:34.642Z,98893.31
2023-03-07T15:42:06.342Z,98893.47
2023-03-07T15:44:36.773Z,98901.50
2023-03-07T15:47:16.789Z,98906.28
2023-03-07T15:49:51.774Z,98905.63
2023-03-07T15:52:30.235Z,98901.97
2023-03-07T15:55:00.972Z,98901.06
2023-03-07T15:57:34.575Z,98887.97
2023-03-07T16:00:05.762Z,98884.38
2023-03-07T16:02:41.441Z,98880.72
2023-03-07T16:05:33.820Z,98884.09
2023-03-07T16:08:02.256Z,98893.59
2023-03-07T16:10:32.922Z,98888.56
2023-03-07T16:13:03.072Z,98891.38
2023-03-07T16:15:32.536Z,98886.94
2023-03-07T16:18:00.763Z,98895.38
2023-03-07T16:20:30.435Z,98893.66
2023-03-07T16:23:00.126Z,98891.09
2023-03-07T16:25:32.060Z,98884.88
2023-03-07T16:28:01.783Z,98888.34
2023-03-07T16:30:30.416Z,98879.97
2023-03-07T16:32:59.774Z,98880.09
2023-03-07T16:35:32.706Z,98870.94
2023-03-07T16:38:01.663Z,98876.34
2023-03-07T16:40:30.655Z,98871.00
2023-03-07T16:42:59.266Z,98865.34
2023-03-07T16:45:29.470Z,98872.63
2023-03-07T16:47:59.161Z,98868.88
2023-03-07T16:50:31.915Z,98872.44
2023-03-07T16:53:00.810Z,98881.53
2023-03-07T16:55:29.355Z,98883.88
2023-03-07T16:58:01.280Z,98881.75
2023-03-07T17:00:31.683Z,98891.84
2023-03-07T17:03:02.234Z,98899.72
2023-03-07T17:05:31.950Z,98893.56
2023-03-07T17:08:00.487Z,98902.00
2023-03-07T17:10:29.459Z,98892.53
2023-03-07T17:13:00.065Z,98901.16
2023-03-07T17:15:31.098Z,98904.81
2023-03-07T17:18:00.141Z,98906.09
2023-03-07T17:20:29.148Z,98911.66
2023-03-07T17:23:01.898Z,98914.06
2023-03-07T17:25:30.358Z,98917.19
2023-03-07T17:28:01.789Z,98906.75
2023-03-07T17:30:31.706Z,98905.81
2023-03-07T17:33:00.232Z,98907.47
2023-03-07T17:35:30.321Z,98911.69
2023-03-07T17:38:01.420Z,98923.78
2023-03-07T17:40:30.347Z,98929.69
2023-03-07T17:42:59.292Z,98931.53
2023-03-07T17:45:29.657Z,98936.63
2023-03-07T17:47:58.215Z,98937.03
2023-03-07T17:50:27.915Z,98932.94
2023-03-07T17:52:56.784Z,98939.91
2023-03-07T17:55:26.466Z,98935.69
2023-03-07T17:57:54.651Z,98936.81
2023-03-07T18:00:23.589Z,98937.38
2023-03-07T18:02:52.234Z,98935.38
2023-03-07T18:05:20.606Z,98930.19
2023-03-07T18:07:51.561Z,98939.56
2023-03-07T18:10:19.928Z,98944.88
2023-03-07T18:12:53.751Z,98933.00
2023-03-07T18:15:22.769Z,98941.81
2023-03-07T18:17:51.842Z,98952.19
2023-03-07T18:20:21.834Z,98938.13
2023-03-07T18:22:50.466Z,98945.38
2023-03-07T18:25:19.609Z,98951.44
2023-03-07T18:27:50.242Z,98950.38
2023-03-07T18:30:18.948Z,98957.53
2023-03-07T18:32:47.496Z,98954.03
2023-03-07T18:35:16.901Z,98957.94
2023-03-07T18:37:45.865Z,98953.84
2023-03-07T18:40:14.960Z,98955.53
2023-03-07T18:42:44.673Z,98963.22
2023-03-07T18:45:16.567Z,98971.63
2023-03-07T18:47:45.236Z,98961.66
2023-03-07T18:50:13.793Z,98961.28
2023-03-07T18:52:42.310Z,98962.78
2023-03-07T18:55:12.317Z,98955.41
2023-03-07T18:57:43.589Z,98960.16
2023-03-07T19:00:15.241Z,98964.97
2023-03-07T19:02:43.890Z,98971.38
2023-03-07T19:05:12.099Z,98962.22
2023-03-07T19:07:40.674Z,98971.56
2023-03-07T19:10:14.581Z,98973.34
2023-03-07T19:12:43.072Z,98975.34
2023-03-07T19:15:12.291Z,98982.28
2023-03-07T19:17:42.617Z,98982.72
2023-03-07T19:20:12.007Z,98969.19
2023-03-07T19:22:40.450Z,98968.94
2023-03-07T19:25:09.777Z,98975.22
2023-03-07T19:27:39.784Z,98982.50
2023-03-07T19:30:11.282Z,98979.41
2023-03-07T19:32:40.855Z,98985.91
2023-03-07T19:35:11.056Z,98971.44
2023-03-07T19:37:39.667Z,98986.75
2023-03-07T19:40:10.220Z,98982.56
2023-03-07T19:42:38.324Z,98981.44
2023-03-07T19:45:08.127Z,98994.88
2023-03-07T19:47:36.376Z,98984.97
2023-03-07T19:50:11.492Z,98999.97
2023-03-07T19:52:43.041Z,98992.69
2023-03-07T19:55:11.665Z,98989.94
2023-03-07T19:57:41.368Z,98996.00
2023-03-07T20:00:10.912Z,98997.03
2023-03-07T20:02:42.176Z,98994.00
2023-03-07T20:05:12.261Z,98991.47
2023-03-07T20:07:41.891Z,99000.25
2023-03-07T20:10:11.984Z,99006.16
2023-03-07T20:12:41.482Z,99009.38
2023-03-07T20:15:12.434Z,99012.00
2023-03-07T20:17:41.389Z,99011.63
2023-03-07T20:20:11.483Z,99020.09
2023-03-07T20:22:44.204Z,99003.16
2023-03-07T20:25:12.390Z,99007.16
2023-03-07T20:27:41.231Z,99007.19
2023-03-07T20:30:10.921Z,99016.19
2023-03-07T20:32:41.227Z,99013.69
2023-03-07T20:35:11.406Z,99013.84
2023-03-07T20:37:39.599Z,99015.28
2023-03-07T20:40:10.979Z,99025.94
2023-03-07T20:42:39.227Z,99017.44
2023-03-07T20:45:08.795Z,99029.41
2023-03-07T20:47:38.714Z,99027.56
2023-03-07T20:50:13.157Z,99030.44
2023-03-07T20:52:47.008Z,99027.31
2023-03-07T20:55:21.765Z,99029.94
2023-03-07T20:57:53.747Z,99029.41
2023-03-07T21:00:27.997Z,99035.81
2023-03-07T21:03:05.406Z,99034.66
2023-03-07T21:05:37.858Z,99037.59
2023-03-07T21:08:11.169Z,99042.97
2023-03-07T21:10:43.587Z,99041.88
2023-03-07T21:13:22.671Z,99042.22
2023-03-07T21:15:56.724Z,99042.78
2023-03-07T21:18:27.685Z,99040.97
2023-03-07T21:21:01.818Z,99040.41
2023-03-07T21:23:30.500Z,99031.22
2023-03-07T21:26:06.118Z,99042.81
2023-03-07T21:28:35.178Z,99040.97
2023-03-07T21:31:09.059Z,99044.84
2023-03-07T21:33:37.536Z,99040.91
2023-03-07T21:36:14.101Z,99046.44
2023-03-07T21:38:43.569Z,99043.94
2023-03-07T21:41:19.658Z,99049.78
2023-03-07T21:43:48.892Z,99047.59
2023-03-07T21:46:22.330Z,99050.19
2023-03-07T21:48:50.914Z,99054.53
2023-03-07T21:51:19.667Z,99043.16
2023-03-07T21:53:48.311Z,99053.56
2023-03-07T21:56:23.940Z,99053.94
2023-03-07T21:58:56.894Z,99055.34
2023-03-07T22:01:34.154Z,99064.00
2023-03-07T22:04:07.746Z,99068.41
2023-03-07T22:06:42.665Z,99053.94
2023-03-07T22:09:12.498Z,99055.06
2023-03-07T22:11:41.851Z,99059.44
2023-03-07T22:14:12.457Z,99072.06
2023-03-07T22:16:43.297Z,99069.69
2023-03-07T22:19:14.073Z,99072.47
2023-03-07T22:21:42.422Z,99068.28
2023-03-07T22:24:12.273Z,99077.25
2023-03-07T22:26:43.664Z,99072.91
2023-03-07T22:29:11.797Z,99061.91
2023-03-07T22:31:40.193Z,99077.66
2023-03-07T22:34:08.397Z,99080.50
2023-03-07T22:36:36.804Z,99085.31
2023-03-07T22:39:07.223Z,99077.97
2023-03-07T22:41:35.857Z,99085.31
2023-03-07T22:44:05.935Z,99088.59
2023-03-07T22:46:34.213Z,99097.22
2023-03-07T22:49:02.805Z,99090.50
2023-03-07T22:51:32.759Z,99098.13
2023-03-07T22:54:00.976Z,99098.13
2023-03-07T22:56:31.622Z,99101.41
2023-03-07T22:59:02.481Z,99099.22
2023-03-07T23:01:35.059Z,99112.84
2023-03-07T23:04:07.153Z,99100.16
2023-03-07T23:06:36.548Z,99105.84
2023-03-07T23:09:07.615Z,99098.13
2023-03-07T23:11:36.844Z,99113.16
2023-03-07T23:14:05.720Z,99107.16
2023-03-07T23:16:39.264Z,99113.38
2023-03-07T23:19:10.521Z,99111.78
2023-03-07T23:21:39.701Z,99112.69
2023-03-07T23:24:09.505Z,99108.47
2023-03-07T23:26:39.023Z,99106.66
2023-03-07T23:29:11.911Z,99112.72
2023-03-07T23:31:43.084Z,99113.50
2023-03-07T23:34:16.242Z,99108.88
2023-03-07T23:36:45.283Z,99116.19
2023-03-07T23:39:15.208Z,99115.13
2023-03-07T23:41:43.348Z,99122.28
2023-03-07T23:44:14.782Z,99110.91
2023-03-07T23:46:44.578Z,99109.66
2023-03-07T23:49:12.757Z,99118.06
2023-03-07T23:51:41.151Z,99112.56
2023-03-07T23:54:10.023Z,99112.75
2023-03-07T23:56:38.440Z,99116.25
2023-03-07T23:59:06.810Z,99114.78
